Time;durP1;ratioP1;P1;durP2;ratioP2;P2;SDS_P1;SDS_P2;PMS_P1;PMS_P2;Temp;Humidity;BMP_temperature;BMP_pressure;BME280_temperature;BME280_humidity;BME280_pressure;Samples;Min_cycle;Max_cycle;Signal;HPM_P1;HPM_P2
2022/03/23 00:00:16;;;;;;;21.38;11.27;;;;;;;7.16;36.30;101582.16;6370367;27;20522;-71
2022/03/23 00:03:17;;;;;;;22.33;11.50;;;;;;;7.11;36.76;101589.22;6369252;28;20043;-71
2022/03/23 00:06:18;;;;;;;25.67;11.32;;;;;;;6.92;36.91;101585.28;6352566;28;20402;-71
2022/03/23 00:09:19;;;;;;;19.13;10.65;;;;;;;6.71;36.89;101586.59;6352144;28;20050;-71
2022/03/23 00:12:20;;;;;;;18.80;10.20;;;;;;;6.62;37.06;101596.28;6352214;28;20084;-71
2022/03/23 00:15:21;;;;;;;22.30;10.68;;;;;;;6.62;37.84;101595.44;6370437;28;20107;-71
2022/03/23 00:18:22;;;;;;;25.05;10.68;;;;;;;6.44;37.52;101594.91;6370293;27;20487;-71
2022/03/23 00:21:23;;;;;;;18.10;10.48;;;;;;;6.44;37.38;101596.63;6339834;27;20092;-71
2022/03/23 00:24:24;;;;;;;25.38;11.48;;;;;;;6.45;37.58;101586.25;6373777;27;20599;-71
2022/03/23 00:27:24;;;;;;;22.30;11.20;;;;;;;6.37;37.43;101590.72;6374773;27;20047;-71
2022/03/23 00:30:25;;;;;;;23.65;10.50;;;;;;;6.38;37.81;101579.47;6373540;27;20051;-71
2022/03/23 00:33:26;;;;;;;20.88;10.93;;;;;;;6.35;37.27;101571.75;6374772;27;20047;-71
2022/03/23 00:36:27;;;;;;;22.63;11.25;;;;;;;6.39;36.90;101575.13;6374714;27;20433;-68
2022/03/23 00:39:28;;;;;;;22.02;11.13;;;;;;;6.39;36.40;101578.56;6373583;27;20043;-71
2022/03/23 00:42:29;;;;;;;27.50;11.13;;;;;;;6.33;36.50;101570.91;6374711;27;20107;-71
2022/03/23 00:45:30;;;;;;;20.55;10.57;;;;;;;6.33;37.11;101568.31;6374330;27;20063;-71
2022/03/23 00:48:31;;;;;;;19.87;9.87;;;;;;;6.28;36.74;101569.28;6349452;27;20040;-71
2022/03/23 00:51:32;;;;;;;22.67;11.10;;;;;;;6.31;36.45;101571.84;6364380;27;20620;-71
2022/03/23 00:54:34;;;;;;;23.17;10.95;;;;;;;6.15;36.92;101569.53;6348667;28;20173;-71
2022/03/23 00:57:36;;;;;;;18.63;10.30;;;;;;;6.11;36.66;101565.28;6348728;28;20487;-71
2022/03/23 01:00:37;;;;;;;17.67;9.38;;;;;;;6.03;37.02;101564.56;6347194;28;20047;-71
2022/03/23 01:03:38;;;;;;;20.15;10.85;;;;;;;6.07;37.30;101560.19;6347260;28;20040;-72
2022/03/23 01:06:39;;;;;;;19.17;9.75;;;;;;;6.01;37.31;101561.13;6330263;28;20090;-71
2022/03/23 01:09:40;;;;;;;19.83;11.23;;;;;;;5.95;37.76;101569.91;6330086;28;20114;-71
2022/03/23 01:12:44;;;;;;;19.73;11.02;;;;;;;5.88;38.33;101570.84;6348246;28;20380;-72
2022/03/23 01:15:45;;;;;;;20.02;11.02;;;;;;;5.84;38.22;101566.59;6346805;28;20043;-72
2022/03/23 01:18:46;;;;;;;22.45;10.45;;;;;;;5.81;37.76;101559.72;6346831;28;20507;-71
2022/03/23 01:21:48;;;;;;;21.98;9.75;;;;;;;5.77;38.36;101571.03;6313150;28;20046;-71
2022/03/23 01:24:48;;;;;;;25.58;11.38;;;;;;;5.81;37.33;101567.50;6346767;28;20032;-68
2022/03/23 01:27:49;;;;;;;26.40;10.30;;;;;;;6.00;35.62;101562.88;6347936;28;20035;-68
2022/03/23 01:30:51;;;;;;;23.08;9.98;;;;;;;6.24;35.57;101566.78;6346880;28;20047;-67
2022/03/23 01:33:52;;;;;;;27.25;10.68;;;;;;;6.45;34.99;101557.72;6347725;28;20035;-68
2022/03/23 01:36:52;;;;;;;20.92;10.35;;;;;;;6.54;34.53;101561.84;6347631;28;20047;-67
2022/03/23 01:39:53;;;;;;;23.70;10.60;;;;;;;6.48;34.66;101556.78;6329405;28;20097;-68
2022/03/23 01:42:54;;;;;;;20.17;10.80;;;;;;;6.47;35.46;101559.44;6346368;28;20088;-68
2022/03/23 01:45:55;;;;;;;24.80;11.25;;;;;;;6.34;35.17;101551.91;6347711;28;20093;-68
2022/03/23 01:48:56;;;;;;;24.40;11.93;;;;;;;6.35;35.49;101547.56;6347576;28;20051;-67
2022/03/23 01:51:57;;;;;;;21.35;11.48;;;;;;;6.35;34.89;101544.97;6346023;28;20475;-68
2022/03/23 01:55:01;;;;;;;21.33;10.73;;;;;;;6.37;34.63;101544.03;6329186;28;20042;-67
2022/03/23 01:58:02;;;;;;;19.92;10.63;;;;;;;6.36;34.99;101537.16;6346009;28;20457;-67
2022/03/23 02:01:03;;;;;;;20.27;10.63;;;;;;;6.35;35.13;101540.63;6346865;28;20051;-67
2022/03/23 02:04:05;;;;;;;25.02;11.07;;;;;;;6.40;35.37;101545.72;6346060;28;20055;-67
2022/03/23 02:07:06;;;;;;;26.20;11.95;;;;;;;6.31;35.15;101548.50;6345733;28;20376;-67
2022/03/23 02:10:08;;;;;;;21.08;12.20;;;;;;;6.31;35.63;101540.72;6345873;28;20039;-67
2022/03/23 02:13:09;;;;;;;24.37;11.83;;;;;;;6.29;35.49;101539.91;6346931;28;20044;-71
2022/03/23 02:16:11;;;;;;;28.50;12.20;;;;;;;6.20;35.61;101533.16;6345662;28;20727;-71
2022/03/23 02:19:13;;;;;;;28.73;12.50;;;;;;;6.19;35.58;101542.66;6346683;28;20450;-71
2022/03/23 02:22:14;;;;;;;26.70;12.80;;;;;;;6.12;36.67;101537.66;6346526;28;20047;-71
2022/03/23 02:25:21;;;;;;;27.53;13.07;;;;;;;6.04;36.48;101533.44;6345283;28;20488;-71
2022/03/23 02:28:23;;;;;;;25.60;12.40;;;;;;;5.98;36.77;101536.16;6346335;28;20039;-71
2022/03/23 02:31:24;;;;;;;30.33;12.73;;;;;;;5.94;36.73;101536.22;6328454;28;20534;-71
2022/03/23 02:34:27;;;;;;;26.63;13.27;;;;;;;5.86;37.00;101536.34;6346399;28;20036;-71
2022/03/23 02:37:28;;;;;;;26.73;13.52;;;;;;;5.81;37.52;101528.66;6346158;28;20040;-71
2022/03/23 02:40:30;;;;;;;25.38;12.77;;;;;;;5.77;37.06;101533.91;6328267;28;20070;-71
2022/03/23 02:43:31;;;;;;;31.33;13.98;;;;;;;5.64;37.50;101536.72;6344918;28;20039;-71
2022/03/23 02:46:35;;;;;;;31.70;14.23;;;;;;;5.49;37.93;101536.09;6353141;27;20093;-71
2022/03/23 02:49:36;;;;;;;25.90;13.35;;;;;;;5.47;38.51;101545.63;6367441;27;20047;-71
2022/03/23 03:01:52;;;;;;;27.10;14.15;;;;;;;5.37;38.36;101542.31;6346610;28;20104;-71
2022/03/23 03:02:51;;;;;;;26.80;13.20;;;;;;;5.35;39.21;101544.09;6349189;27;20105;-71
2022/03/23 03:05:52;;;;;;;25.73;13.23;;;;;;;5.25;39.19;101551.16;6370710;27;20047;-71
2022/03/23 03:08:52;;;;;;;30.65;13.90;;;;;;;5.21;39.27;101546.91;6371904;27;20463;-71
2022/03/23 03:11:55;;;;;;;28.17;13.50;;;;;;;5.14;40.95;101543.53;6371850;27;20097;-71
2022/03/23 03:14:56;;;;;;;32.03;14.23;;;;;;;5.06;40.00;101540.19;6370428;27;20506;-71
2022/03/23 03:18:00;;;;;;;26.52;14.25;;;;;;;4.99;40.20;101538.59;6371935;28;20058;-71
2022/03/23 03:21:07;;;;;;;29.02;14.10;;;;;;;4.96;40.61;101544.66;6371700;27;20043;-71
2022/03/23 03:24:08;;;;;;;27.67;13.35;;;;;;;4.84;39.74;101547.44;6371813;27;20043;-71
2022/03/23 03:27:09;;;;;;;28.42;14.32;;;;;;;4.85;39.69;101559.47;6371625;28;20439;-70
2022/03/23 03:30:17;;;;;;;31.88;14.40;;;;;;;4.74;39.47;101566.53;6371746;27;20521;-67
2022/03/23 03:33:18;;;;;;;32.17;15.10;;;;;;;4.77;39.71;101569.06;6352850;27;20079;-68
2022/03/23 03:36:19;;;;;;;33.13;15.93;;;;;;;4.80;39.71;101561.28;6345965;28;20111;-67
2022/03/23 03:39:20;;;;;;;33.03;16.88;;;;;;;4.66;40.17;101564.03;6346029;28;20048;-67
2022/03/23 03:42:21;;;;;;;41.67;17.45;;;;;;;4.44;41.00;101558.25;6345039;28;20441;-68
2022/03/23 03:45:22;;;;;;;42.83;16.73;;;;;;;4.45;40.80;101552.22;6344875;28;20036;-67
2022/03/23 03:48:24;;;;;;;34.75;16.65;;;;;;;4.46;41.55;101551.31;6328016;28;20050;-68
2022/03/23 03:51:25;;;;;;;36.10;17.87;;;;;;;4.46;41.28;101543.56;6345998;28;20043;-68
2022/03/23 03:54:26;;;;;;;36.15;17.42;;;;;;;4.46;42.18;101553.91;6347634;28;20601;-69
2022/03/23 03:57:27;;;;;;;37.03;16.63;;;;;;;4.39;41.92;101552.28;6349857;28;20055;-69
2022/03/23 04:00:28;;;;;;;37.15;18.15;;;;;;;4.22;42.18;101553.34;6349236;28;20043;-68
2022/03/23 04:03:28;;;;;;;38.85;18.95;;;;;;;4.18;42.75;101556.81;6348875;28;20039;-68
2022/03/23 04:06:29;;;;;;;43.90;17.80;;;;;;;4.15;42.42;101559.41;6368440;27;20050;-68
2022/03/23 04:09:31;;;;;;;33.95;16.92;;;;;;;4.01;42.67;101561.28;6376038;27;20055;-72
2022/03/23 04:12:32;;;;;;;36.10;17.33;;;;;;;4.01;43.19;101556.13;6374996;27;20047;-71
2022/03/23 04:15:35;;;;;;;43.90;17.83;;;;;;;3.99;42.98;101556.13;6375853;27;20050;-71
2022/03/23 04:18:36;;;;;;;40.85;19.05;;;;;;;3.92;43.21;101563.97;6375926;27;20043;-71
2022/03/23 04:21:37;;;;;;;35.55;17.05;;;;;;;3.93;43.16;101565.66;6374562;27;20432;-71
2022/03/23 04:24:38;;;;;;;36.22;18.52;;;;;;;3.89;43.62;101563.97;6375762;27;20047;-71
2022/03/23 04:27:50;;;;;;;36.20;18.17;;;;;;;3.86;44.13;101569.19;6375601;27;20064;-71
2022/03/23 04:30:51;;;;;;;36.13;17.67;;;;;;;3.93;44.14;101576.88;6375862;27;20039;-71
2022/03/23 04:33:52;;;;;;;38.55;17.77;;;;;;;3.87;44.24;101574.34;6374353;27;20506;-68
2022/03/23 04:36:53;;;;;;;38.30;18.77;;;;;;;3.81;44.21;101575.25;6374188;27;20049;-68
2022/03/23 04:39:54;;;;;;;39.08;17.52;;;;;;;3.88;44.61;101572.63;6375541;27;20111;-67
2022/03/23 04:42:56;;;;;;;38.42;18.67;;;;;;;3.92;44.60;101569.97;6369357;27;20472;-68
2022/03/23 04:45:57;;;;;;;38.00;19.00;;;;;;;3.90;44.80;101581.19;6351882;27;20039;-68
2022/03/23 04:48:58;;;;;;;42.92;19.08;;;;;;;3.85;45.11;101581.25;6362537;27;20039;-68
2022/03/23 04:51:58;;;;;;;40.25;20.08;;;;;;;3.86;44.98;101577.78;6375863;27;20046;-69
2022/03/23 04:54:59;;;;;;;37.85;18.45;;;;;;;3.86;45.33;101579.53;6348199;28;20042;-67
2022/03/23 04:58:00;;;;;;;47.03;19.20;;;;;;;3.93;45.58;101579.47;6331425;28;20472;-68
2022/03/23 05:01:01;;;;;;;42.45;20.05;;;;;;;4.00;45.67;101586.25;6351520;27;20107;-68
2022/03/23 05:04:02;;;;;;;41.78;18.20;;;;;;;4.06;45.85;101581.91;6374894;27;20064;-68
2022/03/23 05:07:04;;;;;;;48.35;21.70;;;;;;;4.11;46.20;101587.88;6373301;27;20045;-68
2022/03/23 05:10:07;;;;;;;55.13;27.58;;;;;;;4.20;46.35;101580.03;6373561;27;20043;-71
2022/03/23 05:13:08;;;;;;;51.00;22.67;;;;;;;4.19;46.61;101586.94;6356753;27;20116;-71
2022/03/23 05:16:09;;;;;;;37.25;18.05;;;;;;;4.29;47.01;101584.28;6357660;27;20039;-71
2022/03/23 05:19:10;;;;;;;42.30;18.90;;;;;;;4.53;46.30;101580.53;6349024;28;20500;-72
2022/03/23 05:22:12;;;;;;;37.25;17.60;;;;;;;4.68;46.18;101585.53;6348912;28;20075;-71
2022/03/23 05:25:13;;;;;;;43.58;20.27;;;;;;;4.87;46.03;101590.50;6330783;28;20083;-71
2022/03/23 05:28:14;;;;;;;37.38;18.10;;;;;;;5.01;45.41;101578.22;6348675;28;20131;-72
2022/03/23 05:31:15;;;;;;;42.75;20.75;;;;;;;4.91;45.76;101585.25;6347557;28;20035;-71
2022/03/23 05:34:16;;;;;;;36.38;20.02;;;;;;;5.05;45.59;101585.06;6348543;28;20050;-71
2022/03/23 05:37:17;;;;;;;36.90;18.58;;;;;;;5.20;45.84;101582.25;6348543;28;20047;-71
2022/03/23 05:40:20;;;;;;;31.88;17.40;;;;;;;5.29;45.18;101585.59;6348655;28;20115;-71
2022/03/23 05:43:21;;;;;;;;;;;;;;;5.43;44.85;101586.25;6347569;28;20531;-71
2022/03/23 05:46:22;;;;;;;41.00;18.08;;;;;;;5.56;45.03;101585.19;6353807;27;19930;-72
2022/03/23 05:49:23;;;;;;;36.45;17.23;;;;;;;5.64;44.82;101582.44;6367185;27;20040;-71
2022/03/23 05:52:23;;;;;;;31.33;16.95;;;;;;;5.85;44.48;101589.03;6365649;27;20372;-71
2022/03/23 05:55:24;;;;;;;33.97;16.25;;;;;;;5.88;44.46;101595.91;6371560;27;20046;-71
2022/03/23 05:58:25;;;;;;;32.75;16.23;;;;;;;6.07;44.43;101592.13;6372846;27;20047;-71
2022/03/23 06:01:26;;;;;;;32.70;15.73;;;;;;;6.29;44.08;101594.34;6357585;27;20059;-71
2022/03/23 06:04:27;;;;;;;35.70;15.90;;;;;;;6.54;43.95;101587.78;6372462;27;20066;-71
2022/03/23 06:07:28;;;;;;;31.95;15.27;;;;;;;6.71;43.48;101589.19;6372577;27;20376;-71
2022/03/23 06:10:29;;;;;;;30.05;15.45;;;;;;;6.92;43.63;101586.16;6359202;27;20417;-71
2022/03/23 06:13:30;;;;;;;29.00;15.57;;;;;;;7.14;42.54;101586.53;6328563;28;20047;-71
2022/03/23 06:16:31;;;;;;;31.67;16.13;;;;;;;7.46;41.77;101575.41;6358730;27;20050;-71
2022/03/23 06:19:32;;;;;;;32.65;16.20;;;;;;;7.65;41.48;101583.59;6371196;27;20078;-71
2022/03/23 06:22:33;;;;;;;32.42;16.30;;;;;;;7.86;42.07;101583.97;6348105;27;20401;-71
2022/03/23 06:25:35;;;;;;;32.42;15.75;;;;;;;7.96;41.58;101584.59;6346636;28;20126;-70
2022/03/23 06:28:36;;;;;;;34.63;16.52;;;;;;;8.14;40.70;101584.13;6345129;28;20046;-71
2022/03/23 06:31:37;;;;;;;40.53;16.35;;;;;;;8.37;41.47;101578.28;6336024;27;20054;-67
2022/03/23 06:34:39;;;;;;;36.17;16.38;;;;;;;8.57;41.49;101587.34;6364200;27;20062;-67
2022/03/23 06:37:39;;;;;;;33.38;16.63;;;;;;;8.83;39.85;101584.84;6345449;27;20036;-71
2022/03/23 06:40:41;;;;;;;31.33;16.25;;;;;;;9.07;39.69;101574.56;6346641;28;20051;-67
2022/03/23 06:43:41;;;;;;;30.38;15.82;;;;;;;9.26;38.50;101578.31;6345345;28;20115;-67
2022/03/23 06:46:43;;;;;;;42.58;15.48;;;;;;;9.56;38.32;101575.63;6344703;28;20043;-67
2022/03/23 06:49:44;;;;;;;38.72;15.82;;;;;;;9.77;37.48;101576.69;6345794;28;20046;-67
2022/03/23 06:52:44;;;;;;;36.60;14.65;;;;;;;10.05;37.65;101581.81;6345804;28;20044;-71
2022/03/23 06:55:45;;;;;;;30.00;14.48;;;;;;;10.24;36.59;101581.19;6345614;28;20035;-71
2022/03/23 06:58:46;;;;;;;30.33;13.73;;;;;;;10.49;35.65;101579.41;6344470;28;20050;-71
2022/03/23 07:01:47;;;;;;;67.03;17.58;;;;;;;10.70;36.57;101579.53;6344286;28;20047;-71
2022/03/23 07:04:48;;;;;;;31.55;14.98;;;;;;;10.86;35.50;101578.03;6345325;28;20039;-71
2022/03/23 07:11:08;;;;;;;27.77;14.05;;;;;;;11.25;35.73;101579.19;6344438;28;20039;-68
2022/03/23 07:14:09;;;;;;;27.92;14.32;;;;;;;11.43;34.28;101581.06;6345385;28;20385;-67
2022/03/23 07:17:10;;;;;;;28.20;14.07;;;;;;;11.70;34.66;101579.09;6345318;28;20099;-67
2022/03/23 07:20:12;;;;;;;33.42;14.43;;;;;;;11.86;34.52;101581.03;6327277;28;20503;-68
2022/03/23 07:23:13;;;;;;;29.15;15.15;;;;;;;12.15;34.02;101576.38;6345286;28;20046;-69
2022/03/23 07:26:16;;;;;;;33.80;14.98;;;;;;;12.29;33.22;101574.00;6345165;28;20040;-67
2022/03/23 07:29:17;;;;;;;32.53;14.10;;;;;;;12.39;33.16;101570.06;6345924;27;20044;-67
2022/03/23 07:32:19;;;;;;;32.63;15.57;;;;;;;12.53;32.71;101566.84;6365846;27;20115;-67
2022/03/23 07:35:20;;;;;;;32.42;13.95;;;;;;;12.77;33.15;101574.50;6376236;27;20043;-67
2022/03/23 07:38:21;;;;;;;26.73;14.07;;;;;;;12.80;32.07;101566.50;6376068;27;20047;-67
2022/03/23 07:41:22;;;;;;;28.23;13.98;;;;;;;12.93;31.67;101572.00;6376038;27;20063;-68
2022/03/23 07:44:23;;;;;;;24.45;12.50;;;;;;;13.15;31.52;101561.38;6357555;27;20046;-67
2022/03/23 07:47:24;;;;;;;42.30;14.55;;;;;;;13.35;31.30;101563.06;6351292;27;20127;-67
2022/03/23 07:50:25;;;;;;;35.25;14.00;;;;;;;13.50;31.42;101557.06;6349053;28;20043;-67
2022/03/23 07:53:26;;;;;;;30.35;13.23;;;;;;;13.79;32.21;101552.97;6349002;28;20043;-68
2022/03/23 07:56:26;;;;;;;24.50;13.60;;;;;;;14.04;30.77;101570.97;6331827;28;20388;-68
2022/03/23 07:59:27;;;;;;;27.77;13.60;;;;;;;14.11;30.08;101561.81;6331974;28;20051;-67
2022/03/23 08:02:28;;;;;;;25.65;14.50;;;;;;;14.25;29.66;101566.38;6368517;27;20104;-71
2022/03/23 08:05:30;;;;;;;23.73;11.60;;;;;;;14.38;29.07;101566.56;6362175;27;20564;-71
2022/03/23 08:08:32;;;;;;;23.85;12.10;;;;;;;14.57;29.30;101563.84;6331963;28;20092;-71
2022/03/23 08:11:32;;;;;;;30.00;13.40;;;;;;;14.63;28.58;101563.50;6347148;27;20072;-71
2022/03/23 08:14:33;;;;;;;28.13;14.27;;;;;;;14.84;29.01;101564.09;6374005;27;20510;-71
2022/03/23 08:17:38;;;;;;;27.25;12.02;;;;;;;15.02;28.35;101559.63;6375088;27;20100;-72
2022/03/23 08:20:39;;;;;;;24.50;12.57;;;;;;;15.37;30.19;101548.88;6370332;27;20488;-72
2022/03/23 08:23:40;;;;;;;22.58;12.85;;;;;;;15.62;28.41;101553.56;6349519;28;20039;-72
2022/03/23 08:26:41;;;;;;;29.52;13.18;;;;;;;15.84;28.41;101558.47;6348068;28;20066;-71
2022/03/23 08:29:43;;;;;;;22.73;11.70;;;;;;;15.93;27.31;101553.59;6349236;28;20047;-72
2022/03/23 08:32:44;;;;;;;22.03;10.93;;;;;;;16.03;26.62;101546.84;6349285;28;20036;-72
2022/03/23 08:35:46;;;;;;;20.23;9.20;;;;;;;16.17;25.80;101552.09;6348231;28;20044;-71
2022/03/23 08:38:47;;;;;;;14.55;8.05;;;;;;;16.45;25.75;101545.13;6349098;28;20047;-71
2022/03/23 08:41:48;;;;;;;17.27;8.88;;;;;;;16.68;25.64;101549.81;6330827;28;20078;-71
2022/03/23 08:44:48;;;;;;;22.88;11.00;;;;;;;16.76;25.00;101536.19;6330651;28;20058;-68
2022/03/23 08:47:49;;;;;;;27.05;11.13;;;;;;;17.04;27.01;101539.69;6347790;28;20039;-68
2022/03/23 08:50:51;;;;;;;20.97;10.40;;;;;;;16.99;25.22;101537.38;6348784;28;20120;-68
2022/03/23 08:53:52;;;;;;;18.33;9.10;;;;;;;17.09;23.78;101534.97;6360276;27;20376;-68
2022/03/23 08:56:53;;;;;;;30.90;9.40;;;;;;;17.16;24.90;101535.44;6372806;27;20047;-72
2022/03/23 08:59:53;;;;;;;18.40;10.02;;;;;;;17.36;24.03;101527.06;6371344;27;20506;-68
2022/03/23 09:02:54;;;;;;;21.10;10.48;;;;;;;17.48;24.44;101528.00;6343096;28;20044;-67
2022/03/23 09:05:55;;;;;;;18.27;9.70;;;;;;;17.37;24.05;101523.44;6330107;28;20117;-68
2022/03/23 09:08:56;;;;;;;18.17;9.87;;;;;;;17.69;24.30;101525.75;6347323;28;20111;-68
2022/03/23 09:11:57;;;;;;;26.67;9.55;;;;;;;18.03;23.41;101526.94;6348279;28;20040;-68
2022/03/23 09:15:03;;;;;;;19.70;9.00;;;;;;;17.94;23.43;101514.38;6347083;28;20044;-68
2022/03/23 09:18:07;;;;;;;28.27;10.82;;;;;;;17.95;24.22;101515.22;6348135;28;20039;-68
2022/03/23 09:21:08;;;;;;;22.73;10.48;;;;;;;18.06;24.56;101510.06;6346976;28;20065;-68
2022/03/23 09:24:11;;;;;;;17.58;10.07;;;;;;;18.09;24.22;101513.28;6346794;28;20047;-68
2022/03/23 09:27:12;;;;;;;27.75;11.95;;;;;;;18.12;24.12;101507.81;6329821;28;20040;-68
2022/03/23 09:30:13;;;;;;;22.17;10.73;;;;;;;18.40;24.41;101508.50;6347212;27;20039;-68
2022/03/23 09:33:15;;;;;;;19.33;9.68;;;;;;;18.23;23.96;101508.88;6351134;27;20529;-68
2022/03/23 09:39:36;;;;;;;18.67;10.38;;;;;;;18.70;23.47;101502.00;6346701;28;20043;-68
2022/03/23 09:42:39;;;;;;;17.23;9.00;;;;;;;18.58;23.10;101492.31;6355964;27;20035;-68
2022/03/23 09:48:44;;;;;;;16.33;8.88;;;;;;;18.72;23.18;101485.06;6339824;27;20427;-68
2022/03/23 09:51:46;;;;;;;20.33;8.73;;;;;;;18.65;23.17;101481.16;6354105;27;20040;-68
2022/03/23 09:54:47;;;;;;;16.73;8.43;;;;;;;18.80;22.41;101476.59;6346132;28;20044;-68
2022/03/23 09:57:48;;;;;;;13.32;7.55;;;;;;;19.02;21.35;101467.06;6345770;28;20070;-67
2022/03/23 10:00:49;;;;;;;23.63;8.07;;;;;;;19.04;21.21;101473.09;6346839;28;20415;-68
2022/03/23 10:04:12;;;;;;;17.05;7.32;;;;;;;19.55;20.13;101469.28;6346942;28;20040;-69
2022/03/23 10:07:19;;;;;;;24.48;7.88;;;;;;;19.87;20.12;101461.50;6346750;28;20090;-69
2022/03/23 10:11:01;;;;;;;13.38;7.10;;;;;;;19.91;21.43;101462.97;6347261;28;20039;-69
2022/03/23 10:14:43;;;;;;;13.20;7.75;;;;;;;19.81;20.42;101456.69;6346749;28;20046;-68
2022/03/23 10:18:21;;;;;;;22.35;16.60;;;;;;;19.74;20.08;101445.75;6345378;28;20054;-68
2022/03/23 10:21:25;;;;;;;18.13;10.02;;;;;;;20.11;20.24;101446.34;6346574;28;20039;-69
2022/03/23 10:24:28;;;;;;;15.77;6.85;;;;;;;20.28;19.65;101437.06;6346491;28;20488;-68
2022/03/23 10:27:32;;;;;;;15.27;7.00;;;;;;;19.85;19.56;101429.00;6345203;28;20077;-68
2022/03/23 10:30:35;;;;;;;16.52;6.93;;;;;;;19.94;19.80;101430.94;6347065;27;20119;-68
2022/03/23 10:33:36;;;;;;;13.32;6.22;;;;;;;20.26;17.40;101422.22;6340069;27;20081;-68
2022/03/23 10:36:40;;;;;;;14.23;6.73;;;;;;;20.21;17.50;101413.81;6364107;27;20043;-69
2022/03/23 10:39:41;;;;;;;12.40;5.57;;;;;;;20.33;17.60;101410.19;6371738;27;20047;-68
2022/03/23 10:42:44;;;;;;;11.40;6.28;;;;;;;20.60;17.69;101411.59;6370564;27;20036;-69
2022/03/23 10:45:54;;;;;;;12.93;6.88;;;;;;;20.97;18.34;101403.25;6371530;27;20045;-68
2022/03/23 10:49:01;;;;;;;11.65;6.00;;;;;;;20.83;17.83;101399.91;6371447;27;20437;-69
2022/03/23 10:52:15;;;;;;;10.98;6.30;;;;;;;20.99;18.11;101399.47;6371429;27;20531;-68
2022/03/23 10:55:16;;;;;;;11.52;6.05;;;;;;;21.03;17.79;101387.63;6356988;27;20043;-68
2022/03/23 10:58:22;;;;;;;9.38;5.90;;;;;;;21.45;17.03;101386.78;6327766;28;20058;-72
2022/03/23 11:01:24;;;;;;;11.52;6.18;;;;;;;21.32;16.88;101382.50;6348337;27;20055;-72
2022/03/23 11:04:29;;;;;;;12.30;5.57;;;;;;;20.80;17.24;101375.47;6346456;28;20035;-72
2022/03/23 11:07:38;;;;;;;15.52;8.88;;;;;;;21.31;16.73;101378.19;6339196;27;20039;-72
2022/03/23 11:17:27;;;;;;;11.38;6.70;;;;;;;21.84;18.11;101345.28;6344440;28;20050;-72
2022/03/23 11:20:43;;;;;;;11.80;6.57;;;;;;;21.66;17.07;101344.25;6345739;28;20071;-72
2022/03/23 11:23:45;;;;;;;17.52;7.05;;;;;;;21.76;16.99;101333.66;6345421;28;20510;-72
2022/03/23 11:26:47;;;;;;;11.48;6.70;;;;;;;22.05;17.13;101331.94;6343987;28;20132;-72
2022/03/23 11:29:49;;;;;;;13.70;6.50;;;;;;;21.81;17.55;101320.84;6345394;28;20040;-72
2022/03/23 11:32:49;;;;;;;10.60;5.95;;;;;;;21.97;16.71;101322.94;6349186;27;20088;-73
2022/03/23 11:35:52;;;;;;;17.40;6.63;;;;;;;22.36;15.97;101323.84;6365568;27;20039;-72
2022/03/23 11:38:53;;;;;;;10.25;6.25;;;;;;;22.10;17.55;101308.44;6352766;27;20047;-73
2022/03/23 11:41:55;;;;;;;12.75;6.55;;;;;;;22.43;16.42;101310.88;6352553;28;20088;-72
2022/03/23 11:44:56;;;;;;;12.23;5.57;;;;;;;21.72;15.93;101301.22;6370779;27;20082;-73
2022/03/23 11:48:30;;;;;;;9.30;5.50;;;;;;;21.84;15.54;101305.44;6357415;27;20119;-72
2022/03/23 11:51:50;;;;;;;9.80;5.55;;;;;;;21.58;16.61;101291.84;6340490;28;20055;-73
2022/03/23 11:58:38;;;;;;;10.02;5.45;;;;;;;21.94;15.39;101277.06;6344886;28;20504;-72
2022/03/23 12:01:39;;;;;;;9.25;5.38;;;;;;;22.01;14.85;101279.19;6326821;28;20097;-72
2022/03/23 12:04:40;;;;;;;9.00;5.23;;;;;;;21.91;14.36;101274.69;6344821;28;20089;-72
2022/03/23 12:07:47;;;;;;;8.52;5.43;;;;;;;21.93;14.62;101267.44;6344914;28;20040;-72
2022/03/23 12:10:48;;;;;;;9.32;5.00;;;;;;;22.08;15.89;101267.84;6326961;28;20113;-72
2022/03/23 12:13:56;;;;;;;13.77;5.43;;;;;;;22.03;13.72;101258.63;6344899;28;20036;-72
2022/03/23 12:16:57;;;;;;;10.70;5.47;;;;;;;22.04;13.99;101263.81;6349220;28;20380;-72
2022/03/23 12:20:03;;;;;;;9.63;5.07;;;;;;;22.10;13.86;101252.63;6350115;27;20043;-72
2022/03/23 12:23:30;;;;;;;12.00;5.20;;;;;;;22.45;13.29;101240.59;6357087;27;20487;-73
2022/03/23 12:26:36;;;;;;;10.13;5.65;;;;;;;22.26;13.61;101235.31;6368264;27;20449;-72
2022/03/23 12:29:40;;;;;;;13.15;5.00;;;;;;;22.16;14.19;101237.94;6382760;27;20087;-72
2022/03/23 12:32:41;;;;;;;10.75;5.65;;;;;;;22.25;13.88;101231.78;6368761;27;20119;-72
2022/03/23 12:35:47;;;;;;;9.20;5.70;;;;;;;22.24;13.88;101231.97;6374714;27;20043;-72
2022/03/23 12:38:58;;;;;;;11.98;5.72;;;;;;;22.59;14.49;101234.00;6373395;27;20039;-72
2022/03/23 12:42:17;;;;;;;20.55;5.72;;;;;;;22.40;14.00;101220.72;6374539;27;20510;-72
2022/03/23 12:45:23;;;;;;;13.63;5.20;;;;;;;22.40;15.78;101221.56;6373229;27;20046;-72
2022/03/23 12:58:34;;;;;;;11.20;5.25;;;;;;;22.69;14.13;101205.56;6374056;27;20054;-72
2022/03/23 13:01:41;;;;;;;9.68;5.70;;;;;;;22.97;13.34;101192.28;6372914;27;20273;-72
2022/03/23 13:04:44;;;;;;;14.57;5.93;;;;;;;23.38;14.10;101195.47;6372786;27;20039;-71
2022/03/23 13:07:45;;;;;;;16.70;6.43;;;;;;;23.04;13.41;101185.44;6356307;27;20559;-71
2022/03/23 13:11:02;;;;;;;11.90;5.37;;;;;;;22.86;13.20;101177.34;6356892;27;20039;-72
2022/03/23 13:14:04;;;;;;;11.35;5.50;;;;;;;22.72;13.49;101188.47;6346941;28;20051;-72
2022/03/23 13:17:06;;;;;;;12.18;5.72;;;;;;;22.42;13.36;101174.38;6372514;27;20058;-71
2022/03/23 13:20:09;;;;;;;10.27;5.63;;;;;;;22.72;13.56;101169.84;6362746;27;20042;-71
2022/03/23 13:23:13;;;;;;;14.48;6.28;;;;;;;22.89;13.70;101171.72;6348037;28;20073;-72
2022/03/23 13:26:15;;;;;;;11.30;6.07;;;;;;;22.47;13.26;101176.63;6345858;28;20491;-72
2022/03/23 13:29:16;;;;;;;12.85;6.03;;;;;;;22.49;13.42;101172.00;6351735;27;20047;-71
2022/03/23 13:32:18;;;;;;;;;;;;;;;22.29;13.09;101173.88;6350369;27;20121;-71
2022/03/23 13:35:21;;;;;;;11.90;5.95;;;;;;;22.41;13.67;101155.94;6359130;27;19923;-72
2022/03/23 13:38:33;;;;;;;11.10;5.63;;;;;;;22.24;12.76;101158.34;6346192;28;20054;-72
2022/03/23 13:44:56;;;;;;;10.85;6.05;;;;;;;22.03;12.89;101155.84;6348490;27;20384;-72
2022/03/23 13:47:57;;;;;;;15.95;6.55;;;;;;;22.23;12.93;101148.69;6346198;28;20047;-72
2022/03/23 13:51:00;;;;;;;12.90;6.75;;;;;;;22.33;13.06;101149.50;6329405;28;20093;-72
2022/03/23 13:54:07;;;;;;;17.00;6.90;;;;;;;21.95;12.81;101142.41;6347465;28;20051;-72
2022/03/23 13:57:09;;;;;;;11.65;7.25;;;;;;;22.35;12.95;101132.59;6347242;28;20050;-72
2022/03/23 14:00:22;;;;;;;16.60;7.35;;;;;;;22.47;13.14;101126.13;6345840;28;20036;-72
2022/03/23 14:03:35;;;;;;;17.08;7.40;;;;;;;22.42;13.43;101133.66;6362088;27;20039;-72
2022/03/23 14:06:48;;;;;;;16.88;7.78;;;;;;;22.22;11.81;101124.91;6371345;27;20039;-72
2022/03/23 14:09:49;;;;;;;14.13;7.78;;;;;;;22.26;12.26;101119.19;6361678;27;20036;-72
2022/03/23 14:12:51;;;;;;;13.43;7.83;;;;;;;22.19;12.24;101117.19;6346804;28;20040;-72
2022/03/23 14:15:54;;;;;;;17.45;9.25;;;;;;;21.99;12.40;101113.72;6346596;28;20046;-72
2022/03/23 14:18:56;;;;;;;16.83;9.18;;;;;;;21.75;13.01;101108.88;6345131;28;20564;-72
2022/03/23 14:21:59;;;;;;;16.38;9.88;;;;;;;21.80;12.41;101111.94;6328679;28;20051;-72
2022/03/23 14:25:01;;;;;;;18.98;9.98;;;;;;;22.01;12.11;101114.44;6345447;28;20040;-72
2022/03/23 14:28:16;;;;;;;17.98;9.50;;;;;;;21.94;12.64;101111.50;6346196;28;20040;-72
2022/03/23 14:31:23;;;;;;;17.92;9.23;;;;;;;22.21;12.37;101100.13;6345180;28;20480;-72
2022/03/23 14:34:26;;;;;;;21.20;9.45;;;;;;;22.11;12.26;101100.16;6344940;28;20039;-72
2022/03/23 14:37:36;;;;;;;19.85;9.38;;;;;;;21.92;12.53;101098.34;6346221;27;20055;-72
2022/03/23 14:40:45;;;;;;;18.80;10.30;;;;;;;21.98;12.10;101096.94;6349655;27;20047;-72